sensor_id;sensor_type;location;lat;lon;timestamp;P1;durP1;ratioP1;P2;durP2;ratioP2
7997;SDS011;4044;49.814;7.828;2023-03-01T00:01:55;15.70;;;12.17;;
7997;SDS011;4044;49.814;7.828;2023-03-01T00:04:20;15.67;;;12.57;;
7997;SDS011;4044;49.814;7.828;2023-03-01T00:06:46;19.70;;;12.43;;
7997;SDS011;4044;49.814;7.828;2023-03-01T00:09:12;17.03;;;12.50;;
7997;SDS011;4044;49.814;7.828;2023-03-01T00:11:39;14.70;;;11.27;;
7997;SDS011;4044;49.814;7.828;2023-03-01T00:14:05;16.97;;;12.07;;
7997;SDS011;4044;49.814;7.828;2023-03-01T00:16:32;14.43;;;11.70;;
7997;SDS011;4044;49.814;7.828;2023-03-01T00:18:59;16.53;;;11.77;;
7997;SDS011;4044;49.814;7.828;2023-03-01T00:21:25;16.63;;;12.43;;
7997;SDS011;4044;49.814;7.828;2023-03-01T00:23:51;16.73;;;12.17;;
7997;SDS011;4044;49.814;7.828;2023-03-01T00:26:18;14.77;;;11.67;;
7997;SDS011;4044;49.814;7.828;2023-03-01T00:28:45;15.73;;;12.60;;
7997;SDS011;4044;49.814;7.828;2023-03-01T00:31:12;13.43;;;12.03;;
7997;SDS011;4044;49.814;7.828;2023-03-01T00:33:42;17.50;;;12.43;;
7997;SDS011;4044;49.814;7.828;2023-03-01T00:36:09;15.53;;;13.03;;
7997;SDS011;4044;49.814;7.828;2023-03-01T00:38:39;17.77;;;13.40;;
7997;SDS011;4044;49.814;7.828;2023-03-01T00:41:08;14.90;;;12.40;;
7997;SDS011;4044;49.814;7.828;2023-03-01T00:43:41;18.40;;;13.23;;
7997;SDS011;4044;49.814;7.828;2023-03-01T00:46:09;16.50;;;12.80;;
7997;SDS011;4044;49.814;7.828;2023-03-01T00:48:36;17.27;;;13.23;;
7997;SDS011;4044;49.814;7.828;2023-03-01T00:51:10;14.77;;;12.20;;
7997;SDS011;4044;49.814;7.828;2023-03-01T00:53:37;18.10;;;13.40;;
7997;SDS011;4044;49.814;7.828;2023-03-01T00:56:03;18.00;;;13.20;;
7997;SDS011;4044;49.814;7.828;2023-03-01T00:58:30;17.93;;;13.37;;
7997;SDS011;4044;49.814;7.828;2023-03-01T01:00:56;17.07;;;12.97;;
7997;SDS011;4044;49.814;7.828;2023-03-01T01:03:21;18.40;;;12.93;;
7997;SDS011;4044;49.814;7.828;2023-03-01T01:05:49;14.80;;;12.53;;
7997;SDS011;4044;49.814;7.828;2023-03-01T01:08:19;18.23;;;12.97;;
7997;SDS011;4044;49.814;7.828;2023-03-01T01:10:45;15.17;;;12.30;;
7997;SDS011;4044;49.814;7.828;2023-03-01T01:13:11;16.70;;;13.27;;
7997;SDS011;4044;49.814;7.828;2023-03-01T01:15:37;16.33;;;13.23;;
7997;SDS011;4044;49.814;7.828;2023-03-01T01:18:03;16.17;;;12.37;;
7997;SDS011;4044;49.814;7.828;2023-03-01T01:20:29;15.80;;;12.33;;
7997;SDS011;4044;49.814;7.828;2023-03-01T01:22:54;15.83;;;13.10;;
7997;SDS011;4044;49.814;7.828;2023-03-01T01:25:20;16.67;;;12.23;;
7997;SDS011;4044;49.814;7.828;2023-03-01T01:27:46;14.93;;;11.80;;
7997;SDS011;4044;49.814;7.828;2023-03-01T01:30:11;14.83;;;11.97;;
7997;SDS011;4044;49.814;7.828;2023-03-01T01:32:37;14.20;;;11.70;;
7997;SDS011;4044;49.814;7.828;2023-03-01T01:35:03;16.40;;;12.17;;
7997;SDS011;4044;49.814;7.828;2023-03-01T01:37:29;14.87;;;12.10;;
7997;SDS011;4044;49.814;7.828;2023-03-01T01:39:59;15.53;;;12.53;;
7997;SDS011;4044;49.814;7.828;2023-03-01T01:42:25;16.47;;;12.13;;
7997;SDS011;4044;49.814;7.828;2023-03-01T01:47:55;15.23;;;12.00;;
7997;SDS011;4044;49.814;7.828;2023-03-01T01:50:24;17.13;;;12.47;;
7997;SDS011;4044;49.814;7.828;2023-03-01T01:52:51;15.43;;;12.23;;
7997;SDS011;4044;49.814;7.828;2023-03-01T01:55:19;14.60;;;12.13;;
7997;SDS011;4044;49.814;7.828;2023-03-01T01:57:49;16.47;;;12.13;;
7997;SDS011;4044;49.814;7.828;2023-03-01T02:00:20;16.10;;;12.23;;
7997;SDS011;4044;49.814;7.828;2023-03-01T02:02:49;16.83;;;13.07;;
7997;SDS011;4044;49.814;7.828;2023-03-01T02:05:39;17.87;;;13.13;;
7997;SDS011;4044;49.814;7.828;2023-03-01T02:08:12;16.90;;;12.63;;
7997;SDS011;4044;49.814;7.828;2023-03-01T02:10:39;16.93;;;13.00;;
7997;SDS011;4044;49.814;7.828;2023-03-01T02:13:05;15.10;;;12.40;;
7997;SDS011;4044;49.814;7.828;2023-03-01T02:15:35;15.33;;;12.20;;
7997;SDS011;4044;49.814;7.828;2023-03-01T02:18:02;16.10;;;12.73;;
7997;SDS011;4044;49.814;7.828;2023-03-01T02:23:15;18.97;;;13.40;;
7997;SDS011;4044;49.814;7.828;2023-03-01T02:25:46;17.90;;;13.73;;
7997;SDS011;4044;49.814;7.828;2023-03-01T02:28:46;17.23;;;13.10;;
7997;SDS011;4044;49.814;7.828;2023-03-01T02:31:14;17.47;;;13.40;;
7997;SDS011;4044;49.814;7.828;2023-03-01T02:34:01;15.50;;;12.70;;
7997;SDS011;4044;49.814;7.828;2023-03-01T02:36:30;18.37;;;14.10;;
7997;SDS011;4044;49.814;7.828;2023-03-01T02:39:00;19.87;;;15.10;;
7997;SDS011;4044;49.814;7.828;2023-03-01T02:41:31;17.60;;;13.97;;
7997;SDS011;4044;49.814;7.828;2023-03-01T02:44:00;18.17;;;13.73;;
7997;SDS011;4044;49.814;7.828;2023-03-01T02:46:27;18.17;;;14.13;;
7997;SDS011;4044;49.814;7.828;2023-03-01T02:48:53;18.93;;;13.87;;
7997;SDS011;4044;49.814;7.828;2023-03-01T02:54:02;19.30;;;14.50;;
7997;SDS011;4044;49.814;7.828;2023-03-01T02:56:37;18.27;;;14.00;;
7997;SDS011;4044;49.814;7.828;2023-03-01T02:59:03;22.90;;;14.77;;
7997;SDS011;4044;49.814;7.828;2023-03-01T03:01:29;18.07;;;13.80;;
7997;SDS011;4044;49.814;7.828;2023-03-01T03:04:01;17.87;;;13.63;;
7997;SDS011;4044;49.814;7.828;2023-03-01T03:06:41;17.30;;;13.47;;
7997;SDS011;4044;49.814;7.828;2023-03-01T03:09:08;17.70;;;13.27;;
7997;SDS011;4044;49.814;7.828;2023-03-01T03:11:33;17.30;;;13.40;;
7997;SDS011;4044;49.814;7.828;2023-03-01T03:13:59;15.13;;;12.80;;
7997;SDS011;4044;49.814;7.828;2023-03-01T03:16:24;16.90;;;13.23;;
7997;SDS011;4044;49.814;7.828;2023-03-01T03:18:50;18.77;;;12.43;;
7997;SDS011;4044;49.814;7.828;2023-03-01T03:21:16;18.43;;;13.13;;
7997;SDS011;4044;49.814;7.828;2023-03-01T03:23:42;17.33;;;13.67;;
7997;SDS011;4044;49.814;7.828;2023-03-01T03:26:08;17.40;;;13.37;;
7997;SDS011;4044;49.814;7.828;2023-03-01T03:28:34;17.43;;;13.37;;
7997;SDS011;4044;49.814;7.828;2023-03-01T03:31:00;17.43;;;12.83;;
7997;SDS011;4044;49.814;7.828;2023-03-01T03:33:29;16.13;;;13.30;;
7997;SDS011;4044;49.814;7.828;2023-03-01T03:35:56;15.27;;;12.50;;
7997;SDS011;4044;49.814;7.828;2023-03-01T03:38:21;15.73;;;12.37;;
7997;SDS011;4044;49.814;7.828;2023-03-01T03:40:48;17.23;;;12.73;;
7997;SDS011;4044;49.814;7.828;2023-03-01T03:43:17;15.67;;;12.00;;
7997;SDS011;4044;49.814;7.828;2023-03-01T03:45:44;19.33;;;13.23;;
7997;SDS011;4044;49.814;7.828;2023-03-01T03:48:11;17.40;;;12.83;;
7997;SDS011;4044;49.814;7.828;2023-03-01T03:50:37;16.40;;;12.97;;
7997;SDS011;4044;49.814;7.828;2023-03-01T03:53:05;17.90;;;12.47;;
7997;SDS011;4044;49.814;7.828;2023-03-01T03:55:32;16.40;;;13.27;;
7997;SDS011;4044;49.814;7.828;2023-03-01T03:57:59;18.07;;;13.40;;
7997;SDS011;4044;49.814;7.828;2023-03-01T04:00:27;17.23;;;13.10;;
7997;SDS011;4044;49.814;7.828;2023-03-01T04:02:53;18.00;;;12.90;;
7997;SDS011;4044;49.814;7.828;2023-03-01T04:05:21;15.67;;;12.33;;
7997;SDS011;4044;49.814;7.828;2023-03-01T04:07:47;17.03;;;12.93;;
7997;SDS011;4044;49.814;7.828;2023-03-01T04:10:14;15.77;;;12.60;;
7997;SDS011;4044;49.814;7.828;2023-03-01T04:12:40;16.43;;;12.80;;
7997;SDS011;4044;49.814;7.828;2023-03-01T04:15:08;15.63;;;12.10;;
7997;SDS011;4044;49.814;7.828;2023-03-01T04:17:44;19.07;;;12.93;;
7997;SDS011;4044;49.814;7.828;2023-03-01T04:20:12;16.20;;;12.37;;
7997;SDS011;4044;49.814;7.828;2023-03-01T04:22:39;17.77;;;12.63;;
7997;SDS011;4044;49.814;7.828;2023-03-01T04:25:05;16.63;;;12.53;;
7997;SDS011;4044;49.814;7.828;2023-03-01T04:27:35;15.50;;;12.27;;
7997;SDS011;4044;49.814;7.828;2023-03-01T04:30:02;16.07;;;13.10;;
7997;SDS011;4044;49.814;7.828;2023-03-01T04:32:28;17.43;;;12.43;;
7997;SDS011;4044;49.814;7.828;2023-03-01T04:34:53;15.50;;;12.97;;
7997;SDS011;4044;49.814;7.828;2023-03-01T04:37:19;17.53;;;13.23;;
7997;SDS011;4044;49.814;7.828;2023-03-01T04:39:44;18.00;;;13.50;;
7997;SDS011;4044;49.814;7.828;2023-03-01T04:42:12;17.90;;;13.23;;
7997;SDS011;4044;49.814;7.828;2023-03-01T04:44:38;17.50;;;13.50;;
7997;SDS011;4044;49.814;7.828;2023-03-01T04:47:04;20.07;;;14.67;;
7997;SDS011;4044;49.814;7.828;2023-03-01T04:49:29;18.23;;;14.87;;
7997;SDS011;4044;49.814;7.828;2023-03-01T04:51:55;19.33;;;14.03;;
7997;SDS011;4044;49.814;7.828;2023-03-01T04:54:23;19.50;;;14.93;;
7997;SDS011;4044;49.814;7.828;2023-03-01T04:56:48;23.63;;;15.23;;
7997;SDS011;4044;49.814;7.828;2023-03-01T04:59:14;20.33;;;14.33;;
7997;SDS011;4044;49.814;7.828;2023-03-01T05:01:39;20.67;;;14.57;;
7997;SDS011;4044;49.814;7.828;2023-03-01T05:04:07;18.97;;;14.50;;
7997;SDS011;4044;49.814;7.828;2023-03-01T05:06:38;20.20;;;14.73;;
7997;SDS011;4044;49.814;7.828;2023-03-01T05:09:04;20.47;;;14.90;;
7997;SDS011;4044;49.814;7.828;2023-03-01T05:11:30;18.43;;;13.57;;
7997;SDS011;4044;49.814;7.828;2023-03-01T05:13:58;18.60;;;13.73;;
7997;SDS011;4044;49.814;7.828;2023-03-01T05:16:24;18.37;;;14.47;;
7997;SDS011;4044;49.814;7.828;2023-03-01T05:18:49;17.50;;;13.60;;
7997;SDS011;4044;49.814;7.828;2023-03-01T05:21:16;19.13;;;13.87;;
7997;SDS011;4044;49.814;7.828;2023-03-01T05:23:41;17.07;;;12.70;;
7997;SDS011;4044;49.814;7.828;2023-03-01T05:26:07;19.43;;;14.00;;
7997;SDS011;4044;49.814;7.828;2023-03-01T05:28:34;16.77;;;13.43;;
7997;SDS011;4044;49.814;7.828;2023-03-01T05:31:00;17.00;;;13.30;;
7997;SDS011;4044;49.814;7.828;2023-03-01T05:33:26;17.33;;;13.77;;
7997;SDS011;4044;49.814;7.828;2023-03-01T05:35:52;18.07;;;13.27;;
7997;SDS011;4044;49.814;7.828;2023-03-01T05:38:18;18.60;;;13.00;;
7997;SDS011;4044;49.814;7.828;2023-03-01T05:40:45;15.93;;;13.47;;
7997;SDS011;4044;49.814;7.828;2023-03-01T05:43:12;18.63;;;13.60;;
7997;SDS011;4044;49.814;7.828;2023-03-01T05:45:39;17.67;;;13.00;;
7997;SDS011;4044;49.814;7.828;2023-03-01T05:48:05;17.43;;;13.33;;
7997;SDS011;4044;49.814;7.828;2023-03-01T05:50:33;16.00;;;13.40;;
7997;SDS011;4044;49.814;7.828;2023-03-01T05:53:02;21.90;;;14.30;;
7997;SDS011;4044;49.814;7.828;2023-03-01T05:55:31;18.90;;;15.03;;
7997;SDS011;4044;49.814;7.828;2023-03-01T05:57:58;18.73;;;14.23;;
7997;SDS011;4044;49.814;7.828;2023-03-01T06:00:25;18.67;;;13.90;;
7997;SDS011;4044;49.814;7.828;2023-03-01T06:02:50;19.20;;;14.63;;
7997;SDS011;4044;49.814;7.828;2023-03-01T06:05:18;16.67;;;13.97;;
7997;SDS011;4044;49.814;7.828;2023-03-01T06:07:43;21.33;;;14.50;;
7997;SDS011;4044;49.814;7.828;2023-03-01T06:10:09;19.60;;;15.33;;
7997;SDS011;4044;49.814;7.828;2023-03-01T06:12:36;19.60;;;14.63;;
7997;SDS011;4044;49.814;7.828;2023-03-01T06:15:04;18.57;;;14.70;;
7997;SDS011;4044;49.814;7.828;2023-03-01T06:17:31;17.07;;;14.17;;
7997;SDS011;4044;49.814;7.828;2023-03-01T06:20:02;19.03;;;13.83;;
7997;SDS011;4044;49.814;7.828;2023-03-01T06:22:33;21.20;;;15.03;;
7997;SDS011;4044;49.814;7.828;2023-03-01T06:24:59;20.43;;;15.33;;
7997;SDS011;4044;49.814;7.828;2023-03-01T06:27:24;20.07;;;15.30;;
7997;SDS011;4044;49.814;7.828;2023-03-01T06:29:50;19.93;;;15.00;;
7997;SDS011;4044;49.814;7.828;2023-03-01T06:32:15;18.40;;;14.30;;
7997;SDS011;4044;49.814;7.828;2023-03-01T06:34:41;20.80;;;14.80;;
7997;SDS011;4044;49.814;7.828;2023-03-01T06:37:06;18.40;;;14.13;;
7997;SDS011;4044;49.814;7.828;2023-03-01T06:39:32;20.23;;;15.30;;
7997;SDS011;4044;49.814;7.828;2023-03-01T06:41:58;18.40;;;14.20;;
7997;SDS011;4044;49.814;7.828;2023-03-01T06:44:24;20.17;;;15.03;;
7997;SDS011;4044;49.814;7.828;2023-03-01T06:46:49;18.80;;;14.97;;
7997;SDS011;4044;49.814;7.828;2023-03-01T06:49:15;22.40;;;16.33;;
7997;SDS011;4044;49.814;7.828;2023-03-01T06:51:41;21.43;;;14.83;;
7997;SDS011;4044;49.814;7.828;2023-03-01T06:54:06;22.67;;;15.70;;
7997;SDS011;4044;49.814;7.828;2023-03-01T06:56:32;20.17;;;15.17;;
7997;SDS011;4044;49.814;7.828;2023-03-01T06:58:58;21.47;;;15.13;;
7997;SDS011;4044;49.814;7.828;2023-03-01T07:01:23;22.27;;;15.33;;
7997;SDS011;4044;49.814;7.828;2023-03-01T07:03:49;21.17;;;15.37;;
7997;SDS011;4044;49.814;7.828;2023-03-01T07:06:14;20.63;;;15.57;;
7997;SDS011;4044;49.814;7.828;2023-03-01T07:08:40;20.90;;;16.17;;
7997;SDS011;4044;49.814;7.828;2023-03-01T07:11:05;19.27;;;15.17;;
7997;SDS011;4044;49.814;7.828;2023-03-01T07:13:31;21.53;;;15.40;;
7997;SDS011;4044;49.814;7.828;2023-03-01T07:15:56;19.80;;;14.90;;
7997;SDS011;4044;49.814;7.828;2023-03-01T07:18:22;20.87;;;14.20;;
7997;SDS011;4044;49.814;7.828;2023-03-01T07:20:48;23.20;;;15.53;;
7997;SDS011;4044;49.814;7.828;2023-03-01T07:23:13;17.93;;;14.10;;
7997;SDS011;4044;49.814;7.828;2023-03-01T07:25:40;20.70;;;14.67;;
7997;SDS011;4044;49.814;7.828;2023-03-01T07:28:05;20.27;;;15.07;;
7997;SDS011;4044;49.814;7.828;2023-03-01T07:30:31;19.20;;;14.50;;
7997;SDS011;4044;49.814;7.828;2023-03-01T07:32:57;19.67;;;14.53;;
7997;SDS011;4044;49.814;7.828;2023-03-01T07:35:24;18.77;;;14.20;;
7997;SDS011;4044;49.814;7.828;2023-03-01T07:37:51;18.57;;;14.60;;
7997;SDS011;4044;49.814;7.828;2023-03-01T07:40:17;20.00;;;14.83;;
7997;SDS011;4044;49.814;7.828;2023-03-01T07:42:42;18.23;;;13.80;;
7997;SDS011;4044;49.814;7.828;2023-03-01T07:45:08;20.17;;;14.27;;
7997;SDS011;4044;49.814;7.828;2023-03-01T07:47:34;21.23;;;14.27;;
7997;SDS011;4044;49.814;7.828;2023-03-01T07:50:00;19.63;;;13.87;;
7997;SDS011;4044;49.814;7.828;2023-03-01T07:52:26;19.57;;;14.00;;
7997;SDS011;4044;49.814;7.828;2023-03-01T07:54:51;20.90;;;14.13;;
7997;SDS011;4044;49.814;7.828;2023-03-01T07:57:17;18.97;;;13.17;;
7997;SDS011;4044;49.814;7.828;2023-03-01T07:59:42;20.10;;;14.07;;
7997;SDS011;4044;49.814;7.828;2023-03-01T08:02:09;17.87;;;13.67;;
7997;SDS011;4044;49.814;7.828;2023-03-01T08:04:35;20.30;;;13.80;;
7997;SDS011;4044;49.814;7.828;2023-03-01T08:07:01;17.60;;;12.87;;
7997;SDS011;4044;49.814;7.828;2023-03-01T08:09:29;18.63;;;13.73;;
7997;SDS011;4044;49.814;7.828;2023-03-01T08:11:55;18.03;;;12.70;;
7997;SDS011;4044;49.814;7.828;2023-03-01T08:14:21;18.97;;;13.10;;
7997;SDS011;4044;49.814;7.828;2023-03-01T08:16:48;19.40;;;13.07;;
7997;SDS011;4044;49.814;7.828;2023-03-01T08:19:14;17.73;;;12.93;;
7997;SDS011;4044;49.814;7.828;2023-03-01T08:21:40;18.13;;;11.93;;
7997;SDS011;4044;49.814;7.828;2023-03-01T08:24:06;17.83;;;11.37;;
7997;SDS011;4044;49.814;7.828;2023-03-01T08:26:32;17.17;;;12.20;;
7997;SDS011;4044;49.814;7.828;2023-03-01T08:28:59;14.70;;;11.13;;
7997;SDS011;4044;49.814;7.828;2023-03-01T08:31:26;17.47;;;12.53;;
7997;SDS011;4044;49.814;7.828;2023-03-01T08:33:55;17.50;;;11.77;;
7997;SDS011;4044;49.814;7.828;2023-03-01T08:36:23;14.07;;;11.17;;
7997;SDS011;4044;49.814;7.828;2023-03-01T08:38:50;14.33;;;11.13;;
7997;SDS011;4044;49.814;7.828;2023-03-01T08:41:16;16.67;;;12.07;;
7997;SDS011;4044;49.814;7.828;2023-03-01T08:43:42;14.27;;;11.20;;
7997;SDS011;4044;49.814;7.828;2023-03-01T08:46:08;15.33;;;11.77;;
7997;SDS011;4044;49.814;7.828;2023-03-01T08:48:33;15.27;;;11.60;;
7997;SDS011;4044;49.814;7.828;2023-03-01T08:53:41;17.10;;;11.93;;
7997;SDS011;4044;49.814;7.828;2023-03-01T08:56:07;15.13;;;12.00;;
7997;SDS011;4044;49.814;7.828;2023-03-01T08:58:33;15.40;;;11.40;;
7997;SDS011;4044;49.814;7.828;2023-03-01T09:00:59;13.23;;;11.30;;
7997;SDS011;4044;49.814;7.828;2023-03-01T09:03:25;16.73;;;11.70;;
7997;SDS011;4044;49.814;7.828;2023-03-01T09:05:52;15.97;;;11.40;;
7997;SDS011;4044;49.814;7.828;2023-03-01T09:08:18;14.50;;;10.73;;
7997;SDS011;4044;49.814;7.828;2023-03-01T09:10:44;13.43;;;11.07;;
7997;SDS011;4044;49.814;7.828;2023-03-01T09:13:09;14.60;;;11.53;;
7997;SDS011;4044;49.814;7.828;2023-03-01T09:15:38;15.03;;;11.03;;
7997;SDS011;4044;49.814;7.828;2023-03-01T09:18:04;13.57;;;11.20;;
7997;SDS011;4044;49.814;7.828;2023-03-01T09:20:31;12.97;;;10.83;;
7997;SDS011;4044;49.814;7.828;2023-03-01T09:22:57;15.53;;;11.27;;
7997;SDS011;4044;49.814;7.828;2023-03-01T09:25:23;16.67;;;11.70;;
7997;SDS011;4044;49.814;7.828;2023-03-01T09:27:52;18.03;;;11.43;;
7997;SDS011;4044;49.814;7.828;2023-03-01T09:30:19;12.80;;;11.30;;
7997;SDS011;4044;49.814;7.828;2023-03-01T09:32:46;15.90;;;11.93;;
7997;SDS011;4044;49.814;7.828;2023-03-01T09:35:12;16.47;;;12.43;;
7997;SDS011;4044;49.814;7.828;2023-03-01T09:37:37;15.33;;;11.60;;
7997;SDS011;4044;49.814;7.828;2023-03-01T09:40:05;16.07;;;12.37;;
7997;SDS011;4044;49.814;7.828;2023-03-01T09:42:33;15.20;;;12.03;;
7997;SDS011;4044;49.814;7.828;2023-03-01T09:47:36;16.60;;;11.67;;
7997;SDS011;4044;49.814;7.828;2023-03-01T09:50:10;15.50;;;12.47;;
7997;SDS011;4044;49.814;7.828;2023-03-01T09:52:43;15.57;;;12.00;;
7997;SDS011;4044;49.814;7.828;2023-03-01T09:58:41;15.37;;;12.30;;
7997;SDS011;4044;49.814;7.828;2023-03-01T10:06:32;18.47;;;13.07;;
7997;SDS011;4044;49.814;7.828;2023-03-01T10:09:00;15.77;;;11.93;;
7997;SDS011;4044;49.814;7.828;2023-03-01T10:11:38;14.17;;;12.13;;
7997;SDS011;4044;49.814;7.828;2023-03-01T10:19:42;18.33;;;12.97;;
7997;SDS011;4044;49.814;7.828;2023-03-01T10:22:18;16.20;;;12.33;;
7997;SDS011;4044;49.814;7.828;2023-03-01T10:24:49;17.60;;;13.10;;
7997;SDS011;4044;49.814;7.828;2023-03-01T10:30:34;18.17;;;13.03;;
7997;SDS011;4044;49.814;7.828;2023-03-01T10:32:41;16.87;;;12.77;;
7997;SDS011;4044;49.814;7.828;2023-03-01T10:35:41;16.77;;;13.37;;
7997;SDS011;4044;49.814;7.828;2023-03-01T10:40:36;18.63;;;13.70;;
7997;SDS011;4044;49.814;7.828;2023-03-01T10:43:16;18.73;;;13.47;;
7997;SDS011;4044;49.814;7.828;2023-03-01T10:45:42;17.33;;;13.07;;
7997;SDS011;4044;49.814;7.828;2023-03-01T10:50:48;18.43;;;13.13;;
7997;SDS011;4044;49.814;7.828;2023-03-01T10:58:34;15.73;;;12.70;;
7997;SDS011;4044;49.814;7.828;2023-03-01T11:01:05;16.70;;;12.93;;
7997;SDS011;4044;49.814;7.828;2023-03-01T11:06:30;16.47;;;12.63;;
7997;SDS011;4044;49.814;7.828;2023-03-01T11:08:55;17.53;;;13.13;;
7997;SDS011;4044;49.814;7.828;2023-03-01T11:11:31;18.50;;;12.80;;
7997;SDS011;4044;49.814;7.828;2023-03-01T11:14:12;15.40;;;13.27;;
7997;SDS011;4044;49.814;7.828;2023-03-01T11:16:42;20.17;;;14.10;;
7997;SDS011;4044;49.814;7.828;2023-03-01T11:21:36;17.03;;;13.17;;
7997;SDS011;4044;49.814;7.828;2023-03-01T11:24:09;17.97;;;13.27;;
7997;SDS011;4044;49.814;7.828;2023-03-01T11:26:42;16.20;;;13.13;;
7997;SDS011;4044;49.814;7.828;2023-03-01T11:29:46;15.37;;;13.67;;
7997;SDS011;4044;49.814;7.828;2023-03-01T11:32:07;16.63;;;13.30;;
7997;SDS011;4044;49.814;7.828;2023-03-01T11:37:43;16.83;;;13.37;;
7997;SDS011;4044;49.814;7.828;2023-03-01T11:45:26;18.03;;;14.13;;
7997;SDS011;4044;49.814;7.828;2023-03-01T11:48:30;17.80;;;13.37;;
7997;SDS011;4044;49.814;7.828;2023-03-01T11:51:09;18.53;;;13.87;;
7997;SDS011;4044;49.814;7.828;2023-03-01T11:56:36;16.77;;;13.93;;
7997;SDS011;4044;49.814;7.828;2023-03-01T12:02:20;16.87;;;13.47;;
7997;SDS011;4044;49.814;7.828;2023-03-01T12:08:20;15.73;;;13.27;;
7997;SDS011;4044;49.814;7.828;2023-03-01T12:11:10;16.50;;;13.20;;
7997;SDS011;4044;49.814;7.828;2023-03-01T12:14:19;16.00;;;13.10;;
7997;SDS011;4044;49.814;7.828;2023-03-01T12:22:38;17.73;;;13.33;;
7997;SDS011;4044;49.814;7.828;2023-03-01T12:28:18;16.17;;;12.93;;
7997;SDS011;4044;49.814;7.828;2023-03-01T12:37:09;13.83;;;12.43;;
7997;SDS011;4044;49.814;7.828;2023-03-01T12:40:15;14.17;;;12.63;;
7997;SDS011;4044;49.814;7.828;2023-03-01T12:43:08;14.40;;;12.90;;
7997;SDS011;4044;49.814;7.828;2023-03-01T12:46:21;14.40;;;12.93;;
7997;SDS011;4044;49.814;7.828;2023-03-01T12:51:35;15.50;;;13.52;;
7997;SDS011;4044;49.814;7.828;2023-03-01T12:54:16;15.25;;;13.68;;
7997;SDS011;4044;49.814;7.828;2023-03-01T12:56:52;15.15;;;13.32;;
7997;SDS011;4044;49.814;7.828;2023-03-01T12:59:25;14.35;;;12.85;;
7997;SDS011;4044;49.814;7.828;2023-03-01T13:02:03;14.18;;;12.73;;
7997;SDS011;4044;49.814;7.828;2023-03-01T13:04:33;14.73;;;12.77;;
7997;SDS011;4044;49.814;7.828;2023-03-01T13:17:47;12.52;;;11.32;;
7997;SDS011;4044;49.814;7.828;2023-03-01T13:20:31;11.77;;;10.52;;
7997;SDS011;4044;49.814;7.828;2023-03-01T13:23:00;11.98;;;10.77;;
7997;SDS011;4044;49.814;7.828;2023-03-01T13:25:28;12.30;;;11.10;;
7997;SDS011;4044;49.814;7.828;2023-03-01T13:28:35;11.82;;;10.35;;
7997;SDS011;4044;49.814;7.828;2023-03-01T13:30:58;11.73;;;10.52;;
7997;SDS011;4044;49.814;7.828;2023-03-01T13:35:56;11.27;;;9.82;;
7997;SDS011;4044;49.814;7.828;2023-03-01T13:38:41;12.30;;;10.10;;
7997;SDS011;4044;49.814;7.828;2023-03-01T13:41:12;12.48;;;10.38;;
7997;SDS011;4044;49.814;7.828;2023-03-01T13:43:40;10.88;;;9.63;;
7997;SDS011;4044;49.814;7.828;2023-03-01T13:46:11;11.00;;;9.90;;
7997;SDS011;4044;49.814;7.828;2023-03-01T13:48:47;11.05;;;10.00;;
7997;SDS011;4044;49.814;7.828;2023-03-01T13:51:16;11.00;;;9.45;;
7997;SDS011;4044;49.814;7.828;2023-03-01T13:53:49;10.05;;;9.15;;
7997;SDS011;4044;49.814;7.828;2023-03-01T13:56:16;10.15;;;9.25;;
7997;SDS011;4044;49.814;7.828;2023-03-01T13:58:55;9.45;;;8.65;;
7997;SDS011;4044;49.814;7.828;2023-03-01T14:01:30;9.57;;;8.65;;
7997;SDS011;4044;49.814;7.828;2023-03-01T14:03:58;10.77;;;8.43;;
7997;SDS011;4044;49.814;7.828;2023-03-01T14:06:26;8.73;;;7.93;;
7997;SDS011;4044;49.814;7.828;2023-03-01T14:09:09;10.10;;;8.20;;
7997;SDS011;4044;49.814;7.828;2023-03-01T14:20:00;9.18;;;8.00;;
7997;SDS011;4044;49.814;7.828;2023-03-01T14:22:33;9.18;;;8.18;;
7997;SDS011;4044;49.814;7.828;2023-03-01T14:25:01;9.20;;;8.32;;
7997;SDS011;4044;49.814;7.828;2023-03-01T14:27:41;9.13;;;8.32;;
7997;SDS011;4044;49.814;7.828;2023-03-01T14:32:48;8.85;;;8.05;;
7997;SDS011;4044;49.814;7.828;2023-03-01T14:35:27;9.73;;;8.75;;
7997;SDS011;4044;49.814;7.828;2023-03-01T14:37:59;9.13;;;8.25;;
7997;SDS011;4044;49.814;7.828;2023-03-01T14:40:43;9.15;;;8.07;;
7997;SDS011;4044;49.814;7.828;2023-03-01T14:43:10;8.13;;;7.40;;
7997;SDS011;4044;49.814;7.828;2023-03-01T14:45:37;8.52;;;7.82;;
7997;SDS011;4044;49.814;7.828;2023-03-01T14:48:03;8.25;;;7.55;;
7997;SDS011;4044;49.814;7.828;2023-03-01T14:50:31;8.32;;;7.45;;
7997;SDS011;4044;49.814;7.828;2023-03-01T14:53:05;8.43;;;7.63;;
7997;SDS011;4044;49.814;7.828;2023-03-01T14:55:34;8.07;;;7.38;;
7997;SDS011;4044;49.814;7.828;2023-03-01T14:58:03;10.32;;;8.30;;
7997;SDS011;4044;49.814;7.828;2023-03-01T15:00:30;8.50;;;7.72;;
7997;SDS011;4044;49.814;7.828;2023-03-01T15:03:00;8.98;;;8.18;;
7997;SDS011;4044;49.814;7.828;2023-03-01T15:05:47;9.30;;;8.40;;
7997;SDS011;4044;49.814;7.828;2023-03-01T15:08:20;8.88;;;7.97;;
7997;SDS011;4044;49.814;7.828;2023-03-01T15:13:39;8.40;;;7.70;;
7997;SDS011;4044;49.814;7.828;2023-03-01T15:18:32;8.65;;;7.85;;
7997;SDS011;4044;49.814;7.828;2023-03-01T15:21:09;8.80;;;8.00;;
7997;SDS011;4044;49.814;7.828;2023-03-01T15:23:41;9.68;;;8.00;;
7997;SDS011;4044;49.814;7.828;2023-03-01T15:29:15;8.98;;;8.15;;
7997;SDS011;4044;49.814;7.828;2023-03-01T15:31:43;8.90;;;8.10;;
7997;SDS011;4044;49.814;7.828;2023-03-01T15:34:24;8.57;;;7.72;;
7997;SDS011;4044;49.814;7.828;2023-03-01T15:36:52;9.05;;;7.97;;
7997;SDS011;4044;49.814;7.828;2023-03-01T15:44:35;8.32;;;7.30;;
7997;SDS011;4044;49.814;7.828;2023-03-01T15:47:05;10.25;;;8.10;;
7997;SDS011;4044;49.814;7.828;2023-03-01T15:49:53;7.93;;;7.13;;
7997;SDS011;4044;49.814;7.828;2023-03-01T15:52:34;8.50;;;7.60;;
7997;SDS011;4044;49.814;7.828;2023-03-01T15:55:05;8.18;;;7.18;;
7997;SDS011;4044;49.814;7.828;2023-03-01T15:57:40;8.25;;;7.45;;
7997;SDS011;4044;49.814;7.828;2023-03-01T16:00:08;8.40;;;7.60;;
7997;SDS011;4044;49.814;7.828;2023-03-01T16:02:38;8.55;;;6.97;;
7997;SDS011;4044;49.814;7.828;2023-03-01T16:05:05;9.30;;;7.72;;
7997;SDS011;4044;49.814;7.828;2023-03-01T16:07:31;9.48;;;8.10;;
7997;SDS011;4044;49.814;7.828;2023-03-01T16:09:56;8.70;;;7.80;;
7997;SDS011;4044;49.814;7.828;2023-03-01T16:12:22;8.27;;;7.40;;
7997;SDS011;4044;49.814;7.828;2023-03-01T16:14:49;8.60;;;7.70;;
7997;SDS011;4044;49.814;7.828;2023-03-01T16:17:15;9.70;;;7.40;;
7997;SDS011;4044;49.814;7.828;2023-03-01T16:19:40;11.77;;;7.67;;
7997;SDS011;4044;49.814;7.828;2023-03-01T16:22:06;9.27;;;7.27;;
7997;SDS011;4044;49.814;7.828;2023-03-01T16:24:34;9.60;;;7.83;;
7997;SDS011;4044;49.814;7.828;2023-03-01T16:27:00;8.50;;;7.60;;
7997;SDS011;4044;49.814;7.828;2023-03-01T16:29:26;12.93;;;7.77;;
7997;SDS011;4044;49.814;7.828;2023-03-01T16:31:54;9.20;;;7.97;;
7997;SDS011;4044;49.814;7.828;2023-03-01T16:34:19;9.93;;;8.10;;
7997;SDS011;4044;49.814;7.828;2023-03-01T16:36:46;10.03;;;8.23;;
7997;SDS011;4044;49.814;7.828;2023-03-01T16:39:12;9.63;;;8.10;;
7997;SDS011;4044;49.814;7.828;2023-03-01T16:41:37;9.57;;;8.00;;
7997;SDS011;4044;49.814;7.828;2023-03-01T16:44:03;10.70;;;8.07;;
7997;SDS011;4044;49.814;7.828;2023-03-01T16:46:28;9.30;;;8.40;;
7997;SDS011;4044;49.814;7.828;2023-03-01T16:48:54;8.80;;;7.93;;
7997;SDS011;4044;49.814;7.828;2023-03-01T16:51:21;9.03;;;8.10;;
7997;SDS011;4044;49.814;7.828;2023-03-01T16:53:47;9.40;;;7.57;;
7997;SDS011;4044;49.814;7.828;2023-03-01T16:56:14;9.57;;;7.97;;
7997;SDS011;4044;49.814;7.828;2023-03-01T16:58:40;9.60;;;8.00;;
7997;SDS011;4044;49.814;7.828;2023-03-01T17:01:16;9.53;;;8.53;;
7997;SDS011;4044;49.814;7.828;2023-03-01T17:03:44;10.27;;;7.97;;
7997;SDS011;4044;49.814;7.828;2023-03-01T17:06:12;11.70;;;8.70;;